C Gables, Florida
Current Conditions -  °F | °C
As of 8:53 AM on Thursday 23 Oct 2014 (Local Time) from KTMB Reporting Station
Overcast Overcast  
Wind Chill: 77°   Ceiling: 4100
Heat Index: 78°   Visibility: 10mi
Dew Point: 73°   Wind: 3mph
Humidity: 88%   Direction: 30°NNE
Pressure: 29.93"   Gusts: NA
Location:  25.6371°N, 80.3102°W
Report Text: KTMB 231253Z 03003KT 10SM BKN041 OVC049 25/23 A2993 RMK AO2 RAE29 SLP133 P0000 T02500228
Loading
Personal Weather Stations






























Interactive Weather Map
Tropical Storm Tracking
New forecast layout! Learn more

10-Day Weather Forecast

Advertisements
Track Severe Weather on mobile